sensor_id;sensor_type;location;lat;lon;timestamp;temperature;humidity
4604;DHT22;2314;48.272;11.562;2023-08-17T00:00:01;18.20;99.90
4604;DHT22;2314;48.272;11.562;2023-08-17T00:02:31;18.20;99.90
4604;DHT22;2314;48.272;11.562;2023-08-17T00:04:58;18.10;99.90
4604;DHT22;2314;48.272;11.562;2023-08-17T00:07:25;18.10;99.90
4604;DHT22;2314;48.272;11.562;2023-08-17T00:09:52;18.10;99.90
4604;DHT22;2314;48.272;11.562;2023-08-17T00:12:19;18.00;99.90
4604;DHT22;2314;48.272;11.562;2023-08-17T00:14:47;18.00;99.90
4604;DHT22;2314;48.272;11.562;2023-08-17T00:17:14;18.00;99.90
4604;DHT22;2314;48.272;11.562;2023-08-17T00:19:41;18.00;99.90
4604;DHT22;2314;48.272;11.562;2023-08-17T00:22:08;18.00;99.90
4604;DHT22;2314;48.272;11.562;2023-08-17T00:24:35;17.90;99.90
4604;DHT22;2314;48.272;11.562;2023-08-17T00:27:02;17.90;99.90
4604;DHT22;2314;48.272;11.562;2023-08-17T00:29:30;17.90;99.90
4604;DHT22;2314;48.272;11.562;2023-08-17T00:31:58;17.90;99.90
4604;DHT22;2314;48.272;11.562;2023-08-17T00:34:26;17.90;99.90
4604;DHT22;2314;48.272;11.562;2023-08-17T00:36:53;17.90;99.90
4604;DHT22;2314;48.272;11.562;2023-08-17T00:39:21;17.90;99.90
4604;DHT22;2314;48.272;11.562;2023-08-17T00:41:47;17.90;99.90
4604;DHT22;2314;48.272;11.562;2023-08-17T00:44:14;17.90;99.90
4604;DHT22;2314;48.272;11.562;2023-08-17T00:46:41;17.90;99.90
4604;DHT22;2314;48.272;11.562;2023-08-17T00:49:10;17.90;99.90
4604;DHT22;2314;48.272;11.562;2023-08-17T00:51:38;17.90;99.90
4604;DHT22;2314;48.272;11.562;2023-08-17T00:54:05;17.90;99.90
4604;DHT22;2314;48.272;11.562;2023-08-17T00:56:32;17.90;99.90
4604;DHT22;2314;48.272;11.562;2023-08-17T00:58:59;17.90;99.90
4604;DHT22;2314;48.272;11.562;2023-08-17T01:01:27;17.90;99.90
4604;DHT22;2314;48.272;11.562;2023-08-17T01:03:54;17.90;99.90
4604;DHT22;2314;48.272;11.562;2023-08-17T01:06:36;17.80;99.90
4604;DHT22;2314;48.272;11.562;2023-08-17T01:09:03;17.90;99.90
4604;DHT22;2314;48.272;11.562;2023-08-17T01:11:36;17.90;99.90
4604;DHT22;2314;48.272;11.562;2023-08-17T01:14:08;17.80;99.90
4604;DHT22;2314;48.272;11.562;2023-08-17T01:16:40;17.80;99.90
4604;DHT22;2314;48.272;11.562;2023-08-17T01:19:13;17.80;99.90
4604;DHT22;2314;48.272;11.562;2023-08-17T01:21:50;17.80;99.90
4604;DHT22;2314;48.272;11.562;2023-08-17T01:24:18;17.80;99.90
4604;DHT22;2314;48.272;11.562;2023-08-17T01:26:45;17.80;99.90
4604;DHT22;2314;48.272;11.562;2023-08-17T01:29:12;17.80;99.90
4604;DHT22;2314;48.272;11.562;2023-08-17T01:31:44;17.80;99.90
4604;DHT22;2314;48.272;11.562;2023-08-17T01:34:19;17.90;99.90
4604;DHT22;2314;48.272;11.562;2023-08-17T01:36:52;17.80;99.90
4604;DHT22;2314;48.272;11.562;2023-08-17T01:39:26;17.80;99.90
4604;DHT22;2314;48.272;11.562;2023-08-17T01:41:56;17.80;99.90
4604;DHT22;2314;48.272;11.562;2023-08-17T01:44:23;17.80;99.90
4604;DHT22;2314;48.272;11.562;2023-08-17T01:46:51;17.70;99.90
4604;DHT22;2314;48.272;11.562;2023-08-17T01:49:18;17.70;99.90
4604;DHT22;2314;48.272;11.562;2023-08-17T01:51:46;17.70;99.90
4604;DHT22;2314;48.272;11.562;2023-08-17T01:54:13;17.70;99.90
4604;DHT22;2314;48.272;11.562;2023-08-17T01:56:41;17.60;99.90
4604;DHT22;2314;48.272;11.562;2023-08-17T01:59:08;17.70;99.90
4604;DHT22;2314;48.272;11.562;2023-08-17T02:01:35;17.60;99.90
4604;DHT22;2314;48.272;11.562;2023-08-17T02:04:02;17.60;99.90
4604;DHT22;2314;48.272;11.562;2023-08-17T02:06:29;17.70;99.90
4604;DHT22;2314;48.272;11.562;2023-08-17T02:08:58;17.60;99.90
4604;DHT22;2314;48.272;11.562;2023-08-17T02:11:25;17.70;99.90
4604;DHT22;2314;48.272;11.562;2023-08-17T02:13:53;17.70;99.90
4604;DHT22;2314;48.272;11.562;2023-08-17T02:16:20;17.70;99.90
4604;DHT22;2314;48.272;11.562;2023-08-17T02:18:47;17.60;99.90
4604;DHT22;2314;48.272;11.562;2023-08-17T02:21:14;17.60;99.90
4604;DHT22;2314;48.272;11.562;2023-08-17T02:23:41;17.60;99.90
4604;DHT22;2314;48.272;11.562;2023-08-17T02:26:08;17.60;99.90
4604;DHT22;2314;48.272;11.562;2023-08-17T02:28:35;17.70;99.90
4604;DHT22;2314;48.272;11.562;2023-08-17T02:31:04;17.70;99.90
4604;DHT22;2314;48.272;11.562;2023-08-17T02:33:31;17.70;99.90
4604;DHT22;2314;48.272;11.562;2023-08-17T02:36:00;17.70;99.90
4604;DHT22;2314;48.272;11.562;2023-08-17T02:38:27;17.60;99.90
4604;DHT22;2314;48.272;11.562;2023-08-17T02:40:54;17.60;99.90
4604;DHT22;2314;48.272;11.562;2023-08-17T02:43:21;17.60;99.90
4604;DHT22;2314;48.272;11.562;2023-08-17T02:45:48;17.70;99.90
4604;DHT22;2314;48.272;11.562;2023-08-17T02:48:16;17.60;99.90
4604;DHT22;2314;48.272;11.562;2023-08-17T02:50:43;17.60;99.90
4604;DHT22;2314;48.272;11.562;2023-08-17T02:53:10;17.70;99.90
4604;DHT22;2314;48.272;11.562;2023-08-17T02:55:37;17.70;99.90
4604;DHT22;2314;48.272;11.562;2023-08-17T02:58:04;17.70;99.90
4604;DHT22;2314;48.272;11.562;2023-08-17T03:00:31;17.70;99.90
4604;DHT22;2314;48.272;11.562;2023-08-17T03:02:58;17.70;99.90
4604;DHT22;2314;48.272;11.562;2023-08-17T03:05:26;17.70;99.90
4604;DHT22;2314;48.272;11.562;2023-08-17T03:07:53;17.70;99.90
4604;DHT22;2314;48.272;11.562;2023-08-17T03:10:20;17.60;99.90
4604;DHT22;2314;48.272;11.562;2023-08-17T03:12:47;17.60;99.90
4604;DHT22;2314;48.272;11.562;2023-08-17T03:15:14;17.50;99.90
4604;DHT22;2314;48.272;11.562;2023-08-17T03:17:41;17.50;99.90
4604;DHT22;2314;48.272;11.562;2023-08-17T03:20:09;17.50;99.90
4604;DHT22;2314;48.272;11.562;2023-08-17T03:22:37;17.50;99.90
4604;DHT22;2314;48.272;11.562;2023-08-17T03:25:05;17.40;99.90
4604;DHT22;2314;48.272;11.562;2023-08-17T03:27:33;17.40;99.90
4604;DHT22;2314;48.272;11.562;2023-08-17T03:30:00;17.40;99.90
4604;DHT22;2314;48.272;11.562;2023-08-17T03:32:27;17.30;99.90
4604;DHT22;2314;48.272;11.562;2023-08-17T03:34:54;17.30;99.90
4604;DHT22;2314;48.272;11.562;2023-08-17T03:37:21;17.20;99.90
4604;DHT22;2314;48.272;11.562;2023-08-17T03:39:49;17.20;99.90
4604;DHT22;2314;48.272;11.562;2023-08-17T03:42:16;17.10;99.90
4604;DHT22;2314;48.272;11.562;2023-08-17T03:44:43;17.10;99.90
4604;DHT22;2314;48.272;11.562;2023-08-17T03:47:10;17.10;99.90
4604;DHT22;2314;48.272;11.562;2023-08-17T03:49:37;17.00;99.90
4604;DHT22;2314;48.272;11.562;2023-08-17T03:52:05;17.00;99.90
4604;DHT22;2314;48.272;11.562;2023-08-17T03:54:32;17.00;99.90
4604;DHT22;2314;48.272;11.562;2023-08-17T03:57:00;17.10;99.90
4604;DHT22;2314;48.272;11.562;2023-08-17T03:59:27;17.10;99.90
4604;DHT22;2314;48.272;11.562;2023-08-17T04:01:54;17.10;99.90
4604;DHT22;2314;48.272;11.562;2023-08-17T04:04:21;17.10;99.90
4604;DHT22;2314;48.272;11.562;2023-08-17T04:06:48;17.10;99.90
4604;DHT22;2314;48.272;11.562;2023-08-17T04:09:15;17.10;99.90
4604;DHT22;2314;48.272;11.562;2023-08-17T04:11:42;17.10;99.90
4604;DHT22;2314;48.272;11.562;2023-08-17T04:14:11;17.10;99.90
4604;DHT22;2314;48.272;11.562;2023-08-17T04:16:39;17.10;99.90
4604;DHT22;2314;48.272;11.562;2023-08-17T04:19:07;17.10;99.90
4604;DHT22;2314;48.272;11.562;2023-08-17T04:21:33;17.10;99.90
4604;DHT22;2314;48.272;11.562;2023-08-17T04:24:00;17.00;99.90
4604;DHT22;2314;48.272;11.562;2023-08-17T04:26:27;17.00;99.90
4604;DHT22;2314;48.272;11.562;2023-08-17T04:28:54;17.00;99.90
4604;DHT22;2314;48.272;11.562;2023-08-17T04:31:23;16.90;99.90
4604;DHT22;2314;48.272;11.562;2023-08-17T04:33:50;16.90;99.90
4604;DHT22;2314;48.272;11.562;2023-08-17T04:36:18;16.90;99.90
4604;DHT22;2314;48.272;11.562;2023-08-17T04:38:45;16.90;99.90
4604;DHT22;2314;48.272;11.562;2023-08-17T04:41:12;17.00;99.90
4604;DHT22;2314;48.272;11.562;2023-08-17T04:43:39;17.00;99.90
4604;DHT22;2314;48.272;11.562;2023-08-17T04:46:08;17.00;99.90
4604;DHT22;2314;48.272;11.562;2023-08-17T04:48:36;17.00;99.90
4604;DHT22;2314;48.272;11.562;2023-08-17T04:51:03;17.10;99.90
4604;DHT22;2314;48.272;11.562;2023-08-17T04:53:31;17.10;99.90
4604;DHT22;2314;48.272;11.562;2023-08-17T04:55:58;17.10;99.90
4604;DHT22;2314;48.272;11.562;2023-08-17T04:58:27;17.10;99.90
4604;DHT22;2314;48.272;11.562;2023-08-17T05:00:54;17.10;99.90
4604;DHT22;2314;48.272;11.562;2023-08-17T05:03:21;17.10;99.90
4604;DHT22;2314;48.272;11.562;2023-08-17T05:05:49;17.20;99.90
4604;DHT22;2314;48.272;11.562;2023-08-17T05:08:18;17.20;99.90
4604;DHT22;2314;48.272;11.562;2023-08-17T05:10:47;17.30;99.90
4604;DHT22;2314;48.272;11.562;2023-08-17T05:13:14;17.30;99.90
4604;DHT22;2314;48.272;11.562;2023-08-17T05:15:41;17.40;99.90
4604;DHT22;2314;48.272;11.562;2023-08-17T05:18:08;17.40;99.90
4604;DHT22;2314;48.272;11.562;2023-08-17T05:20:36;17.50;99.90
4604;DHT22;2314;48.272;11.562;2023-08-17T05:23:04;17.60;99.90
4604;DHT22;2314;48.272;11.562;2023-08-17T05:25:32;17.60;99.90
4604;DHT22;2314;48.272;11.562;2023-08-17T05:27:59;17.70;99.90
4604;DHT22;2314;48.272;11.562;2023-08-17T05:30:26;17.70;99.90
4604;DHT22;2314;48.272;11.562;2023-08-17T05:32:54;17.80;99.90
4604;DHT22;2314;48.272;11.562;2023-08-17T05:35:21;17.80;99.90
4604;DHT22;2314;48.272;11.562;2023-08-17T05:37:48;17.90;99.90
4604;DHT22;2314;48.272;11.562;2023-08-17T05:40:17;17.90;99.90
4604;DHT22;2314;48.272;11.562;2023-08-17T05:42:45;18.00;99.90
4604;DHT22;2314;48.272;11.562;2023-08-17T05:45:12;18.10;99.90
4604;DHT22;2314;48.272;11.562;2023-08-17T05:47:39;18.10;99.90
4604;DHT22;2314;48.272;11.562;2023-08-17T05:50:07;18.20;99.90
4604;DHT22;2314;48.272;11.562;2023-08-17T05:52:35;18.30;99.90
4604;DHT22;2314;48.272;11.562;2023-08-17T05:55:02;18.30;99.90
4604;DHT22;2314;48.272;11.562;2023-08-17T05:57:31;18.40;99.90
4604;DHT22;2314;48.272;11.562;2023-08-17T05:59:59;18.50;99.90
4604;DHT22;2314;48.272;11.562;2023-08-17T06:02:26;18.50;99.90
4604;DHT22;2314;48.272;11.562;2023-08-17T06:04:53;18.60;99.90
4604;DHT22;2314;48.272;11.562;2023-08-17T06:07:20;18.80;99.90
4604;DHT22;2314;48.272;11.562;2023-08-17T06:09:48;18.80;99.90
4604;DHT22;2314;48.272;11.562;2023-08-17T06:12:15;18.90;99.90
4604;DHT22;2314;48.272;11.562;2023-08-17T06:14:44;19.00;99.90
4604;DHT22;2314;48.272;11.562;2023-08-17T06:17:12;19.10;99.90
4604;DHT22;2314;48.272;11.562;2023-08-17T06:19:39;19.20;99.90
4604;DHT22;2314;48.272;11.562;2023-08-17T06:22:07;19.30;99.90
4604;DHT22;2314;48.272;11.562;2023-08-17T06:24:35;19.40;99.90
4604;DHT22;2314;48.272;11.562;2023-08-17T06:27:02;19.40;99.90
4604;DHT22;2314;48.272;11.562;2023-08-17T06:29:29;19.50;99.90
4604;DHT22;2314;48.272;11.562;2023-08-17T06:31:58;19.50;99.90
4604;DHT22;2314;48.272;11.562;2023-08-17T06:34:25;19.60;99.90
4604;DHT22;2314;48.272;11.562;2023-08-17T06:36:58;19.70;99.90
4604;DHT22;2314;48.272;11.562;2023-08-17T06:39:26;19.80;99.90
4604;DHT22;2314;48.272;11.562;2023-08-17T06:41:53;19.90;99.90
4604;DHT22;2314;48.272;11.562;2023-08-17T06:44:20;20.00;99.90
4604;DHT22;2314;48.272;11.562;2023-08-17T06:46:48;20.10;99.90
4604;DHT22;2314;48.272;11.562;2023-08-17T06:49:16;20.20;99.90
4604;DHT22;2314;48.272;11.562;2023-08-17T06:51:43;20.20;99.90
4604;DHT22;2314;48.272;11.562;2023-08-17T06:54:10;20.30;99.90
4604;DHT22;2314;48.272;11.562;2023-08-17T06:56:37;20.40;99.90
4604;DHT22;2314;48.272;11.562;2023-08-17T06:59:04;20.40;99.90
4604;DHT22;2314;48.272;11.562;2023-08-17T07:01:32;20.50;99.90
4604;DHT22;2314;48.272;11.562;2023-08-17T07:03:59;20.50;99.90
4604;DHT22;2314;48.272;11.562;2023-08-17T07:06:27;20.60;99.90
4604;DHT22;2314;48.272;11.562;2023-08-17T07:08:55;20.60;99.90
4604;DHT22;2314;48.272;11.562;2023-08-17T07:11:22;20.70;99.90
4604;DHT22;2314;48.272;11.562;2023-08-17T07:13:49;21.00;99.90
4604;DHT22;2314;48.272;11.562;2023-08-17T07:16:16;21.20;99.90
4604;DHT22;2314;48.272;11.562;2023-08-17T07:18:43;21.30;99.90
4604;DHT22;2314;48.272;11.562;2023-08-17T07:21:10;21.60;99.90
4604;DHT22;2314;48.272;11.562;2023-08-17T07:23:39;21.60;99.90
4604;DHT22;2314;48.272;11.562;2023-08-17T07:26:10;21.60;99.90
4604;DHT22;2314;48.272;11.562;2023-08-17T07:28:37;21.60;99.90
4604;DHT22;2314;48.272;11.562;2023-08-17T07:31:04;21.60;99.90
4604;DHT22;2314;48.272;11.562;2023-08-17T07:33:31;21.60;99.90
4604;DHT22;2314;48.272;11.562;2023-08-17T07:35:58;21.70;99.90
4604;DHT22;2314;48.272;11.562;2023-08-17T07:38:25;21.80;99.90
4604;DHT22;2314;48.272;11.562;2023-08-17T07:40:54;21.80;99.90
4604;DHT22;2314;48.272;11.562;2023-08-17T07:43:22;21.80;99.90
4604;DHT22;2314;48.272;11.562;2023-08-17T07:45:53;21.90;99.90
4604;DHT22;2314;48.272;11.562;2023-08-17T07:48:20;22.00;99.90
4604;DHT22;2314;48.272;11.562;2023-08-17T07:50:49;22.10;99.90
4604;DHT22;2314;48.272;11.562;2023-08-17T07:53:16;22.30;99.90
4604;DHT22;2314;48.272;11.562;2023-08-17T07:55:44;22.50;99.90
4604;DHT22;2314;48.272;11.562;2023-08-17T07:58:12;22.70;99.90
4604;DHT22;2314;48.272;11.562;2023-08-17T08:00:39;22.70;99.90
4604;DHT22;2314;48.272;11.562;2023-08-17T08:03:06;22.80;99.90
4604;DHT22;2314;48.272;11.562;2023-08-17T08:05:33;22.90;99.90
4604;DHT22;2314;48.272;11.562;2023-08-17T08:08:00;22.90;99.90
4604;DHT22;2314;48.272;11.562;2023-08-17T08:10:27;23.20;99.90
4604;DHT22;2314;48.272;11.562;2023-08-17T08:12:55;23.50;99.90
4604;DHT22;2314;48.272;11.562;2023-08-17T08:15:23;23.70;99.90
4604;DHT22;2314;48.272;11.562;2023-08-17T08:17:50;23.60;99.90
4604;DHT22;2314;48.272;11.562;2023-08-17T08:20:17;23.60;99.90
4604;DHT22;2314;48.272;11.562;2023-08-17T08:22:44;23.60;99.90
4604;DHT22;2314;48.272;11.562;2023-08-17T08:25:11;23.60;99.90
4604;DHT22;2314;48.272;11.562;2023-08-17T08:27:41;23.70;99.90
4604;DHT22;2314;48.272;11.562;2023-08-17T08:30:11;23.80;99.90
4604;DHT22;2314;48.272;11.562;2023-08-17T08:32:40;23.90;99.90
4604;DHT22;2314;48.272;11.562;2023-08-17T08:35:07;24.10;99.90
4604;DHT22;2314;48.272;11.562;2023-08-17T08:37:35;24.50;99.90
4604;DHT22;2314;48.272;11.562;2023-08-17T08:40:02;25.20;99.90
4604;DHT22;2314;48.272;11.562;2023-08-17T08:42:29;25.90;99.90
4604;DHT22;2314;48.272;11.562;2023-08-17T08:44:56;26.40;99.90
4604;DHT22;2314;48.272;11.562;2023-08-17T08:47:24;27.00;99.90
4604;DHT22;2314;48.272;11.562;2023-08-17T08:49:59;27.60;99.90
4604;DHT22;2314;48.272;11.562;2023-08-17T08:52:34;28.20;99.90
4604;DHT22;2314;48.272;11.562;2023-08-17T08:55:10;28.90;99.90
4604;DHT22;2314;48.272;11.562;2023-08-17T08:57:39;29.60;99.90
4604;DHT22;2314;48.272;11.562;2023-08-17T09:00:07;30.20;99.90
4604;DHT22;2314;48.272;11.562;2023-08-17T09:02:35;30.90;99.90
4604;DHT22;2314;48.272;11.562;2023-08-17T09:05:06;31.10;99.90
4604;DHT22;2314;48.272;11.562;2023-08-17T09:07:34;31.40;99.90
4604;DHT22;2314;48.272;11.562;2023-08-17T09:10:02;31.80;99.90
4604;DHT22;2314;48.272;11.562;2023-08-17T09:12:30;32.00;99.90
4604;DHT22;2314;48.272;11.562;2023-08-17T09:14:57;32.10;99.90
4604;DHT22;2314;48.272;11.562;2023-08-17T09:17:24;32.30;99.90
4604;DHT22;2314;48.272;11.562;2023-08-17T09:19:52;33.00;98.40
4604;DHT22;2314;48.272;11.562;2023-08-17T09:22:24;32.90;99.90
4604;DHT22;2314;48.272;11.562;2023-08-17T09:24:51;32.80;98.50
4604;DHT22;2314;48.272;11.562;2023-08-17T09:27:18;32.90;99.90
4604;DHT22;2314;48.272;11.562;2023-08-17T09:29:47;33.40;95.90
4604;DHT22;2314;48.272;11.562;2023-08-17T09:32:15;33.70;94.50
4604;DHT22;2314;48.272;11.562;2023-08-17T09:34:44;33.70;93.80
4604;DHT22;2314;48.272;11.562;2023-08-17T09:37:12;33.40;96.20
4604;DHT22;2314;48.272;11.562;2023-08-17T09:39:41;33.20;96.90
4604;DHT22;2314;48.272;11.562;2023-08-17T09:42:09;33.20;96.90
4604;DHT22;2314;48.272;11.562;2023-08-17T09:44:37;32.90;98.20
4604;DHT22;2314;48.272;11.562;2023-08-17T09:47:05;33.00;95.70
4604;DHT22;2314;48.272;11.562;2023-08-17T09:49:32;32.80;96.90
4604;DHT22;2314;48.272;11.562;2023-08-17T09:52:00;32.40;98.10
4604;DHT22;2314;48.272;11.562;2023-08-17T09:54:30;32.00;99.90
4604;DHT22;2314;48.272;11.562;2023-08-17T09:56:59;31.80;99.90
4604;DHT22;2314;48.272;11.562;2023-08-17T09:59:26;31.70;99.90
4604;DHT22;2314;48.272;11.562;2023-08-17T10:01:54;31.60;99.90
4604;DHT22;2314;48.272;11.562;2023-08-17T10:04:23;32.00;96.50
4604;DHT22;2314;48.272;11.562;2023-08-17T10:06:52;31.90;99.90
4604;DHT22;2314;48.272;11.562;2023-08-17T10:09:24;31.90;99.90
4604;DHT22;2314;48.272;11.562;2023-08-17T10:11:54;32.00;99.90
4604;DHT22;2314;48.272;11.562;2023-08-17T10:14:29;32.50;95.40
4604;DHT22;2314;48.272;11.562;2023-08-17T10:17:01;32.50;99.10
4604;DHT22;2314;48.272;11.562;2023-08-17T10:19:37;32.30;98.40
4604;DHT22;2314;48.272;11.562;2023-08-17T10:22:11;32.50;97.10
4604;DHT22;2314;48.272;11.562;2023-08-17T10:24:41;32.80;95.90
4604;DHT22;2314;48.272;11.562;2023-08-17T10:27:10;33.10;96.20
4604;DHT22;2314;48.272;11.562;2023-08-17T10:29:39;33.10;96.50
4604;DHT22;2314;48.272;11.562;2023-08-17T10:32:06;33.30;94.80
4604;DHT22;2314;48.272;11.562;2023-08-17T10:34:34;33.50;95.20
4604;DHT22;2314;48.272;11.562;2023-08-17T10:37:01;33.60;94.90
4604;DHT22;2314;48.272;11.562;2023-08-17T10:39:29;33.50;95.10
4604;DHT22;2314;48.272;11.562;2023-08-17T10:41:58;33.50;94.50
4604;DHT22;2314;48.272;11.562;2023-08-17T10:44:44;33.60;93.40
4604;DHT22;2314;48.272;11.562;2023-08-17T10:47:21;33.80;91.80
4604;DHT22;2314;48.272;11.562;2023-08-17T10:49:50;33.60;94.60
4604;DHT22;2314;48.272;11.562;2023-08-17T10:52:25;33.50;95.70
4604;DHT22;2314;48.272;11.562;2023-08-17T10:54:54;33.60;95.50
4604;DHT22;2314;48.272;11.562;2023-08-17T10:57:35;33.80;95.10
4604;DHT22;2314;48.272;11.562;2023-08-17T11:00:15;33.70;95.10
4604;DHT22;2314;48.272;11.562;2023-08-17T11:02:54;33.90;93.60
4604;DHT22;2314;48.272;11.562;2023-08-17T11:05:37;33.80;93.90
4604;DHT22;2314;48.272;11.562;2023-08-17T11:08:07;33.70;91.80
4604;DHT22;2314;48.272;11.562;2023-08-17T11:10:36;33.50;91.80
4604;DHT22;2314;48.272;11.562;2023-08-17T11:13:04;33.30;93.90
4604;DHT22;2314;48.272;11.562;2023-08-17T11:15:38;32.90;94.80
4604;DHT22;2314;48.272;11.562;2023-08-17T11:18:08;32.40;95.70
4604;DHT22;2314;48.272;11.562;2023-08-17T11:20:37;32.00;97.40
4604;DHT22;2314;48.272;11.562;2023-08-17T11:23:07;31.60;98.20
4604;DHT22;2314;48.272;11.562;2023-08-17T11:25:35;31.70;98.00
4604;DHT22;2314;48.272;11.562;2023-08-17T11:28:03;32.30;94.90
4604;DHT22;2314;48.272;11.562;2023-08-17T11:30:33;32.70;97.00
4604;DHT22;2314;48.272;11.562;2023-08-17T11:33:04;33.20;93.60
4604;DHT22;2314;48.272;11.562;2023-08-17T11:35:32;33.50;94.20
4604;DHT22;2314;48.272;11.562;2023-08-17T11:37:59;33.50;93.00
4604;DHT22;2314;48.272;11.562;2023-08-17T11:40:26;33.20;94.50
4604;DHT22;2314;48.272;11.562;2023-08-17T11:42:53;33.10;94.00
4604;DHT22;2314;48.272;11.562;2023-08-17T11:45:20;33.00;95.60
4604;DHT22;2314;48.272;11.562;2023-08-17T11:47:49;33.10;93.70
4604;DHT22;2314;48.272;11.562;2023-08-17T11:50:18;33.20;95.20
4604;DHT22;2314;48.272;11.562;2023-08-17T11:52:45;33.50;92.10
4604;DHT22;2314;48.272;11.562;2023-08-17T11:55:16;33.40;94.00
4604;DHT22;2314;48.272;11.562;2023-08-17T11:57:44;33.20;94.40
4604;DHT22;2314;48.272;11.562;2023-08-17T12:00:17;33.20;94.40
4604;DHT22;2314;48.272;11.562;2023-08-17T12:02:50;33.20;94.20
4604;DHT22;2314;48.272;11.562;2023-08-17T12:05:23;33.40;92.30
4604;DHT22;2314;48.272;11.562;2023-08-17T12:07:54;33.70;92.40
4604;DHT22;2314;48.272;11.562;2023-08-17T12:10:21;34.10;90.40
4604;DHT22;2314;48.272;11.562;2023-08-17T12:12:49;34.20;90.50
4604;DHT22;2314;48.272;11.562;2023-08-17T12:15:16;34.30;91.10
4604;DHT22;2314;48.272;11.562;2023-08-17T12:17:46;34.20;88.80
4604;DHT22;2314;48.272;11.562;2023-08-17T12:20:17;33.90;91.10
4604;DHT22;2314;48.272;11.562;2023-08-17T12:22:47;33.70;90.80
4604;DHT22;2314;48.272;11.562;2023-08-17T12:25:14;33.70;90.60
4604;DHT22;2314;48.272;11.562;2023-08-17T12:27:41;33.70;87.20
4604;DHT22;2314;48.272;11.562;2023-08-17T12:30:13;33.60;91.40
4604;DHT22;2314;48.272;11.562;2023-08-17T12:32:40;33.40;94.10
4604;DHT22;2314;48.272;11.562;2023-08-17T12:35:08;33.20;94.70
4604;DHT22;2314;48.272;11.562;2023-08-17T12:37:35;33.30;92.30
4604;DHT22;2314;48.272;11.562;2023-08-17T12:40:04;33.50;93.20
4604;DHT22;2314;48.272;11.562;2023-08-17T12:42:33;33.60;90.30
4604;DHT22;2314;48.272;11.562;2023-08-17T12:45:00;33.50;92.30
4604;DHT22;2314;48.272;11.562;2023-08-17T12:47:27;33.50;88.70
4604;DHT22;2314;48.272;11.562;2023-08-17T12:49:54;33.40;90.20
4604;DHT22;2314;48.272;11.562;2023-08-17T12:52:21;33.10;87.60
4604;DHT22;2314;48.272;11.562;2023-08-17T12:54:48;32.90;91.40
4604;DHT22;2314;48.272;11.562;2023-08-17T12:57:16;32.90;91.00
4604;DHT22;2314;48.272;11.562;2023-08-17T12:59:43;32.90;90.10
4604;DHT22;2314;48.272;11.562;2023-08-17T13:02:11;32.90;89.80
4604;DHT22;2314;48.272;11.562;2023-08-17T13:04:39;32.90;88.90
4604;DHT22;2314;48.272;11.562;2023-08-17T13:07:06;32.70;84.50
4604;DHT22;2314;48.272;11.562;2023-08-17T13:09:33;32.70;90.80
4604;DHT22;2314;48.272;11.562;2023-08-17T13:12:00;32.70;87.20
4604;DHT22;2314;48.272;11.562;2023-08-17T13:14:28;32.90;89.50
4604;DHT22;2314;48.272;11.562;2023-08-17T13:16:55;33.10;90.80
4604;DHT22;2314;48.272;11.562;2023-08-17T13:19:22;33.30;87.90
4604;DHT22;2314;48.272;11.562;2023-08-17T13:21:49;33.40;85.00
4604;DHT22;2314;48.272;11.562;2023-08-17T13:24:16;33.20;89.00
4604;DHT22;2314;48.272;11.562;2023-08-17T13:26:43;33.20;89.20
4604;DHT22;2314;48.272;11.562;2023-08-17T13:29:10;33.10;91.40
4604;DHT22;2314;48.272;11.562;2023-08-17T13:31:38;33.00;90.10
4604;DHT22;2314;48.272;11.562;2023-08-17T13:34:05;32.90;88.30
4604;DHT22;2314;48.272;11.562;2023-08-17T13:36:32;32.90;87.30
4604;DHT22;2314;48.272;11.562;2023-08-17T13:38:59;32.90;83.90
4604;DHT22;2314;48.272;11.562;2023-08-17T13:41:26;32.70;88.20
4604;DHT22;2314;48.272;11.562;2023-08-17T13:43:53;32.60;84.50
4604;DHT22;2314;48.272;11.562;2023-08-17T13:46:22;32.70;84.80
4604;DHT22;2314;48.272;11.562;2023-08-17T13:48:51;32.80;84.80
4604;DHT22;2314;48.272;11.562;2023-08-17T13:51:19;32.80;81.80
4604;DHT22;2314;48.272;11.562;2023-08-17T13:53:46;32.70;82.10
4604;DHT22;2314;48.272;11.562;2023-08-17T13:56:13;32.50;84.10
4604;DHT22;2314;48.272;11.562;2023-08-17T13:58:40;32.30;84.30
4604;DHT22;2314;48.272;11.562;2023-08-17T14:01:07;32.30;87.40
4604;DHT22;2314;48.272;11.562;2023-08-17T14:03:35;32.40;82.50
4604;DHT22;2314;48.272;11.562;2023-08-17T14:06:04;32.30;85.40
4604;DHT22;2314;48.272;11.562;2023-08-17T14:08:31;32.30;87.30
4604;DHT22;2314;48.272;11.562;2023-08-17T14:10:58;32.00;90.70
4604;DHT22;2314;48.272;11.562;2023-08-17T14:13:26;31.70;90.80
4604;DHT22;2314;48.272;11.562;2023-08-17T14:15:53;31.40;91.70
4604;DHT22;2314;48.272;11.562;2023-08-17T14:18:21;31.00;92.90
4604;DHT22;2314;48.272;11.562;2023-08-17T14:20:48;30.70;91.00
4604;DHT22;2314;48.272;11.562;2023-08-17T14:23:17;30.80;92.40
4604;DHT22;2314;48.272;11.562;2023-08-17T14:25:44;30.90;93.60
4604;DHT22;2314;48.272;11.562;2023-08-17T14:28:11;31.00;93.00
4604;DHT22;2314;48.272;11.562;2023-08-17T14:30:38;31.20;93.40
4604;DHT22;2314;48.272;11.562;2023-08-17T14:33:05;31.30;93.20
4604;DHT22;2314;48.272;11.562;2023-08-17T14:35:32;31.40;93.00
4604;DHT22;2314;48.272;11.562;2023-08-17T14:37:59;31.50;91.70
4604;DHT22;2314;48.272;11.562;2023-08-17T14:40:28;31.80;91.20
4604;DHT22;2314;48.272;11.562;2023-08-17T14:42:55;31.90;91.40
4604;DHT22;2314;48.272;11.562;2023-08-17T14:45:22;32.00;92.40
4604;DHT22;2314;48.272;11.562;2023-08-17T14:47:49;32.10;92.80
4604;DHT22;2314;48.272;11.562;2023-08-17T14:50:16;32.20;91.10
4604;DHT22;2314;48.272;11.562;2023-08-17T14:52:43;32.10;91.00
4604;DHT22;2314;48.272;11.562;2023-08-17T14:55:10;32.20;90.40
4604;DHT22;2314;48.272;11.562;2023-08-17T14:57:38;32.10;90.10
4604;DHT22;2314;48.272;11.562;2023-08-17T15:00:07;31.90;89.70
4604;DHT22;2314;48.272;11.562;2023-08-17T15:02:35;31.70;91.50
4604;DHT22;2314;48.272;11.562;2023-08-17T15:05:02;31.60;92.00
4604;DHT22;2314;48.272;11.562;2023-08-17T15:07:29;31.60;91.50
4604;DHT22;2314;48.272;11.562;2023-08-17T15:09:56;31.50;91.80
4604;DHT22;2314;48.272;11.562;2023-08-17T15:12:23;31.40;91.90
4604;DHT22;2314;48.272;11.562;2023-08-17T15:14:52;31.40;90.50
4604;DHT22;2314;48.272;11.562;2023-08-17T15:17:19;31.50;90.90
4604;DHT22;2314;48.272;11.562;2023-08-17T15:19:46;31.40;91.90
4604;DHT22;2314;48.272;11.562;2023-08-17T15:22:13;31.30;90.00
4604;DHT22;2314;48.272;11.562;2023-08-17T15:24:40;31.00;90.40
4604;DHT22;2314;48.272;11.562;2023-08-17T15:27:08;30.80;91.50
4604;DHT22;2314;48.272;11.562;2023-08-17T15:29:35;30.60;93.30
4604;DHT22;2314;48.272;11.562;2023-08-17T15:32:04;30.50;93.70
4604;DHT22;2314;48.272;11.562;2023-08-17T15:34:31;30.30;93.00
4604;DHT22;2314;48.272;11.562;2023-08-17T15:36:59;30.00;92.90
4604;DHT22;2314;48.272;11.562;2023-08-17T15:39:27;29.70;94.20
4604;DHT22;2314;48.272;11.562;2023-08-17T15:41:54;29.40;94.70
4604;DHT22;2314;48.272;11.562;2023-08-17T15:44:22;29.00;95.20
4604;DHT22;2314;48.272;11.562;2023-08-17T15:46:49;28.70;96.10
4604;DHT22;2314;48.272;11.562;2023-08-17T15:49:17;28.50;95.10